Extreme low temperature From: 25-02-2018 16:00 Until: 26-02-2018 16:00 warning for: Extreme low temperature Level: Yellow info button

Although rather usual in this region, locally or potentially dangerous phenomena are expected. (such as local winds, summer thunderstorms, rising streams or high waves) Be aware and pay attention to the latest weather updates, especially if you carry out activities exposed to weather or close to a stream or shoreline. 


Meteo18 Weather Cam more information Meteo18 Weather Cam


Thunder radar more information blitzortung!


Rain radar more information rain snow radar


Visit our other weather sites:

Template documentation
and downloads

And another site



Weather Underground History page Text

Daily Summary for January 1, 2018 Units:  Both    English   Metric
« Previous Day
Next Day »
Daily Weekly Monthly Yearly Custom
  High: Low: Average:
Temperature: TemperatureC °F /  -17.8 °C 5.1 °F /  -14.9 °C 6.9 °F /  -13.9 °C
Dew Point: DewpointC °F /  -17.8 °C 4.0 °F /  -15.6 °C 5 °F /  -15 °C
Humidity: Humidity % 80 % 88 %
Wind Speed: WindSpeedKMH mph /  0 km/h - 18 mph /  29 km/h
Wind Gust: WindSpeedGustKMH mph /  0 km/h - -
Wind:- - WSW
Pressure: PressurehPa in /  0 hPa 1002.6 in /  33948 hPa -
Precipitation: 20.3 in /  515.62 mm    
Historical Graphs
 
 
Tabular Data for January 1, 2018
Time Temperature Dew Point Pressure Wind Wind Speed Wind Gust Humidity Rainfall Rate (Hourly)
TemperatureC °F /  -17.8 °C DewpointC °F /  -17.8 °C PressurehPa in /  0 hPa Calm     Humidity % HourlyPrecipMM in /  0 mm
00:01 8.3 °F /  -13.2 °C 6.1 °F /  -14.4 °C 1012.4 in /  34279.9 hPa West 20.9 mph /  33.6 km/h 38.6 mph /  62.1 km/h 86 % 0.0 in /  0 mm
00:07 8.3 °F /  -13.2 °C 6.1 °F /  -14.4 °C 1012.4 in /  34279.9 hPa WSW 25.9 mph /  41.7 km/h 27.4 mph /  44.1 km/h 86 % 0.0 in /  0 mm
00:13 8.3 °F /  -13.2 °C 6.1 °F /  -14.4 °C 1012.1 in /  34269.7 hPa WSW 19.5 mph /  31.4 km/h 25.7 mph /  41.4 km/h 86 % 0.0 in /  0 mm
00:15 8.3 °F /  -13.2 °C 6.1 °F /  -14.4 °C 1012.4 in /  34279.9 hPa West 7.9 mph /  12.7 km/h 29.0 mph /  46.7 km/h 86 % 0.0 in /  0 mm
00:21 8.3 °F /  -13.2 °C 6.3 °F /  -14.3 °C 1012.4 in /  34279.9 hPa WSW 13.0 mph /  20.9 km/h 29.0 mph /  46.7 km/h 87 % 0.0 in /  0 mm
00:29 8.2 °F /  -13.2 °C 6.2 °F /  -14.3 °C 1012.8 in /  34293.4 hPa WSW 24.1 mph /  38.8 km/h 29.0 mph /  46.7 km/h 87 % 0.0 in /  0 mm
00:37 8.3 °F /  -13.2 °C 6.3 °F /  -14.3 °C 1012.8 in /  34293.4 hPa SW 22.7 mph /  36.5 km/h 33.8 mph /  54.4 km/h 87 % 0.0 in /  0 mm
00:43 8.2 °F /  -13.2 °C 6.2 °F /  -14.3 °C 1012.8 in /  34293.4 hPa South 16.3 mph /  26.2 km/h 38.6 mph /  62.1 km/h 87 % 0.0 in /  0 mm
00:49 8.2 °F /  -13.2 °C 6.2 °F /  -14.3 °C 1012.8 in /  34293.4 hPa SW 17.7 mph /  28.5 km/h 25.7 mph /  41.4 km/h 87 % 0.0 in /  0 mm
00:55 8.2 °F /  -13.2 °C 6.2 °F /  -14.3 °C 1012.8 in /  34293.4 hPa SW 14.3 mph /  23 km/h 25.7 mph /  41.4 km/h 87 % 0.0 in /  0 mm
01:01 8.2 °F /  -13.2 °C 6.2 °F /  -14.3 °C 1012.8 in /  34293.4 hPa WSW 17.7 mph /  28.5 km/h 29.0 mph /  46.7 km/h 87 % 0.0 in /  0 mm
01:07 8.1 °F /  -13.3 °C 6.1 °F /  -14.4 °C 1012.8 in /  34293.4 hPa West 14.3 mph /  23 km/h 25.7 mph /  41.4 km/h 87 % 0.0 in /  0 mm
01:10 8.1 °F /  -13.3 °C 6.1 °F /  -14.4 °C 1012.8 in /  34293.4 hPa WSW 16.3 mph /  26.2 km/h 25.7 mph /  41.4 km/h 87 % 0.0 in /  0 mm
01:17 8.2 °F /  -13.2 °C 6.2 °F /  -14.3 °C 1013.1 in /  34303.6 hPa SW 19.5 mph /  31.4 km/h 29.0 mph /  46.7 km/h 87 % 0.0 in /  0 mm
01:23 8.2 °F /  -13.2 °C 6.0 °F /  -14.4 °C 1012.8 in /  34293.4 hPa WSW 16.3 mph /  26.2 km/h 35.4 mph /  57 km/h 86 % 0.0 in /  0 mm
01:29 8.2 °F /  -13.2 °C 5.8 °F /  -14.6 °C 1012.8 in /  34293.4 hPa SW 17.7 mph /  28.5 km/h 35.4 mph /  57 km/h 85 % 0.0 in /  0 mm
01:35 8.1 °F /  -13.3 °C 5.7 °F /  -14.6 °C 1012.8 in /  34293.4 hPa SW 13.0 mph /  20.9 km/h 22.5 mph /  36.2 km/h 85 % 0.0 in /  0 mm
01:41 8.1 °F /  -13.3 °C 5.7 °F /  -14.6 °C 1012.8 in /  34293.4 hPa WSW 19.5 mph /  31.4 km/h 29.0 mph /  46.7 km/h 85 % 0.0 in /  0 mm
01:48 8.1 °F /  -13.3 °C 5.7 °F /  -14.6 °C 1013.1 in /  34303.6 hPa West 27.4 mph /  44.1 km/h 35.4 mph /  57 km/h 85 % 0.0 in /  0 mm
01:53 8.1 °F /  -13.3 °C 5.4 °F /  -14.8 °C 1013.1 in /  34303.6 hPa West 27.4 mph /  44.1 km/h 38.6 mph /  62.1 km/h 83 % 0.0 in /  0 mm
01:59 8.1 °F /  -13.3 °C 5.4 °F /  -14.8 °C 1013.1 in /  34303.6 hPa WSW 24.1 mph /  38.8 km/h 30.6 mph /  49.2 km/h 83 % 0.0 in /  0 mm
02:06 8.0 °F /  -13.3 °C 5.5 °F /  -14.7 °C 1013.1 in /  34303.6 hPa WNW 14.3 mph /  23 km/h 30.6 mph /  49.2 km/h 84 % 0.0 in /  0 mm
02:12 7.9 °F /  -13.4 °C 5.4 °F /  -14.8 °C 1013.4 in /  34313.7 hPa WSW 17.7 mph /  28.5 km/h 27.4 mph /  44.1 km/h 84 % 0.0 in /  0 mm
02:18 7.8 °F /  -13.4 °C 5.3 °F /  -14.8 °C 1013.4 in /  34313.7 hPa West 17.7 mph /  28.5 km/h 25.7 mph /  41.4 km/h 84 % 0.0 in /  0 mm
02:24 7.7 °F /  -13.5 °C 5.2 °F /  -14.9 °C 1013.4 in /  34313.7 hPa SW 20.9 mph /  33.6 km/h 33.8 mph /  54.4 km/h 84 % 0.0 in /  0 mm
02:30 7.6 °F /  -13.6 °C 5.1 °F /  -14.9 °C 1013.4 in /  34313.7 hPa WSW 20.9 mph /  33.6 km/h 35.4 mph /  57 km/h 84 % 0.0 in /  0 mm
02:36 7.5 °F /  -13.6 °C 4.8 °F /  -15.1 °C 1013.8 in /  34327.3 hPa West 13.0 mph /  20.9 km/h 32.2 mph /  51.8 km/h 83 % 0.0 in /  0 mm
02:42 7.4 °F /  -13.7 °C 4.7 °F /  -15.2 °C 1013.8 in /  34327.3 hPa SW 20.9 mph /  33.6 km/h 37.0 mph /  59.5 km/h 83 % 0.0 in /  0 mm
02:48 7.3 °F /  -13.7 °C 4.6 °F /  -15.2 °C 1014.1 in /  34337.4 hPa WSW 9.7 mph /  15.6 km/h 29.0 mph /  46.7 km/h 83 % 0.0 in /  0 mm
02:54 7.2 °F /  -13.8 °C 4.5 °F /  -15.3 °C 1014.1 in /  34337.4 hPa WSW 14.3 mph /  23 km/h 32.2 mph /  51.8 km/h 83 % 0.0 in /  0 mm
03:00 7.1 °F /  -13.8 °C 4.6 °F /  -15.2 °C 1014.1 in /  34337.4 hPa WSW 14.3 mph /  23 km/h 22.5 mph /  36.2 km/h 84 % 0.0 in /  0 mm
03:02 7.1 °F /  -13.8 °C 4.6 °F /  -15.2 °C 1014.1 in /  34337.4 hPa WSW 20.9 mph /  33.6 km/h 29.0 mph /  46.7 km/h 84 % 0.0 in /  0 mm
03:08 7.1 °F /  -13.8 °C 4.6 °F /  -15.2 °C 1014.1 in /  34337.4 hPa SW 9.7 mph /  15.6 km/h 29.0 mph /  46.7 km/h 84 % 0.0 in /  0 mm
03:14 7.1 °F /  -13.8 °C 4.6 °F /  -15.2 °C 1014.1 in /  34337.4 hPa WSW 16.3 mph /  26.2 km/h 24.1 mph /  38.8 km/h 84 % 0.0 in /  0 mm
03:20 7.1 °F /  -13.8 °C 4.6 °F /  -15.2 °C 1014.1 in /  34337.4 hPa WSW 22.7 mph /  36.5 km/h 25.7 mph /  41.4 km/h 84 % 0.0 in /  0 mm
03:26 6.9 °F /  -13.9 °C 4.4 °F /  -15.3 °C 1014.1 in /  34337.4 hPa WSW 9.7 mph /  15.6 km/h 20.9 mph /  33.6 km/h 84 % 0.0 in /  0 mm
03:32 6.9 °F /  -13.9 °C 4.4 °F /  -15.3 °C 1014.4 in /  34347.6 hPa WSW 25.9 mph /  41.7 km/h 40.2 mph /  64.7 km/h 84 % 0.0 in /  0 mm
03:38 6.9 °F /  -13.9 °C 4.4 °F /  -15.3 °C 1014.4 in /  34347.6 hPa West 7.9 mph /  12.7 km/h 22.5 mph /  36.2 km/h 84 % 0.0 in /  0 mm
03:44 6.8 °F /  -14 °C 4.3 °F /  -15.4 °C 1014.4 in /  34347.6 hPa SW 11.1 mph /  17.9 km/h 16.1 mph /  25.9 km/h 84 % 0.0 in /  0 mm
03:52 6.7 °F /  -14.1 °C 4.4 °F /  -15.3 °C 1014.4 in /  34347.6 hPa SW 24.1 mph /  38.8 km/h 25.7 mph /  41.4 km/h 85 % 0.0 in /  0 mm
03:58 6.7 °F /  -14.1 °C 4.4 °F /  -15.3 °C 1014.4 in /  34347.6 hPa WSW 11.1 mph /  17.9 km/h 22.5 mph /  36.2 km/h 85 % 0.0 in /  0 mm
04:04 6.7 °F /  -14.1 °C 4.4 °F /  -15.3 °C 1014.8 in /  34361.1 hPa WSW 14.3 mph /  23 km/h 19.3 mph /  31.1 km/h 85 % 0.0 in /  0 mm
04:10 6.7 °F /  -14.1 °C 4.4 °F /  -15.3 °C 1014.8 in /  34361.1 hPa West 7.9 mph /  12.7 km/h 24.1 mph /  38.8 km/h 85 % 0.0 in /  0 mm
04:16 6.7 °F /  -14.1 °C 4.4 °F /  -15.3 °C 1014.8 in /  34361.1 hPa West 11.1 mph /  17.9 km/h 22.5 mph /  36.2 km/h 85 % 0.0 in /  0 mm
04:22 6.6 °F /  -14.1 °C 4.3 °F /  -15.4 °C 1014.8 in /  34361.1 hPa WSW 19.5 mph /  31.4 km/h 25.7 mph /  41.4 km/h 85 % 0.0 in /  0 mm
04:28 6.6 °F /  -14.1 °C 4.3 °F /  -15.4 °C 1014.8 in /  34361.1 hPa WSW 11.1 mph /  17.9 km/h 25.7 mph /  41.4 km/h 85 % 0.0 in /  0 mm
04:34 6.6 °F /  -14.1 °C 4.3 °F /  -15.4 °C 1014.8 in /  34361.1 hPa West 20.9 mph /  33.6 km/h 29.0 mph /  46.7 km/h 85 % 0.0 in /  0 mm
04:41 6.6 °F /  -14.1 °C 4.3 °F /  -15.4 °C 1014.8 in /  34361.1 hPa WSW 24.1 mph /  38.8 km/h 27.4 mph /  44.1 km/h 85 % 0.0 in /  0 mm
04:46 6.6 °F /  -14.1 °C 4.3 °F /  -15.4 °C 1015.1 in /  34371.3 hPa WSW 17.7 mph /  28.5 km/h 25.7 mph /  41.4 km/h 85 % 0.0 in /  0 mm
04:52 6.6 °F /  -14.1 °C 4.4 °F /  -15.3 °C 1015.1 in /  34371.3 hPa SSW 11.1 mph /  17.9 km/h 20.9 mph /  33.6 km/h 86 % 0.0 in /  0 mm
04:58 6.5 °F /  -14.2 °C 4.3 °F /  -15.4 °C 1015.1 in /  34371.3 hPa WSW 13.0 mph /  20.9 km/h 20.9 mph /  33.6 km/h 86 % 0.0 in /  0 mm
05:04 6.5 °F /  -14.2 °C 4.3 °F /  -15.4 °C 1015.1 in /  34371.3 hPa WSW 7.9 mph /  12.7 km/h 22.5 mph /  36.2 km/h 86 % 0.0 in /  0 mm
05:10 6.5 °F /  -14.2 °C 4.5 °F /  -15.3 °C 1015.1 in /  34371.3 hPa SW 24.1 mph /  38.8 km/h 25.7 mph /  41.4 km/h 87 % 0.0 in /  0 mm
05:16 6.6 °F /  -14.1 °C 4.6 °F /  -15.2 °C 1015.1 in /  34371.3 hPa West 14.3 mph /  23 km/h 32.2 mph /  51.8 km/h 87 % 0.0 in /  0 mm
05:22 6.5 °F /  -14.2 °C 4.5 °F /  -15.3 °C 1015.1 in /  34371.3 hPa West 16.3 mph /  26.2 km/h 30.6 mph /  49.2 km/h 87 % 0.0 in /  0 mm
05:28 6.5 °F /  -14.2 °C 4.5 °F /  -15.3 °C 1015.1 in /  34371.3 hPa WSW 22.7 mph /  36.5 km/h 24.1 mph /  38.8 km/h 87 % 0.0 in /  0 mm
05:34 6.4 °F /  -14.2 °C 4.2 °F /  -15.4 °C 1015.1 in /  34371.3 hPa SW 17.7 mph /  28.5 km/h 29.0 mph /  46.7 km/h 86 % 0.0 in /  0 mm
05:40 6.5 °F /  -14.2 °C 4.3 °F /  -15.4 °C 1015.1 in /  34371.3 hPa SW 13.0 mph /  20.9 km/h 19.3 mph /  31.1 km/h 86 % 0.0 in /  0 mm
05:46 6.4 °F /  -14.2 °C 4.2 °F /  -15.4 °C 1015.5 in /  34384.8 hPa WSW 14.3 mph /  23 km/h 22.5 mph /  36.2 km/h 86 % 0.0 in /  0 mm
05:52 6.5 °F /  -14.2 °C 4.3 °F /  -15.4 °C 1015.1 in /  34371.3 hPa WSW 17.7 mph /  28.5 km/h 22.5 mph /  36.2 km/h 86 % 0.0 in /  0 mm
05:58 6.6 °F /  -14.1 °C 4.4 °F /  -15.3 °C 1015.1 in /  34371.3 hPa SSW 9.7 mph /  15.6 km/h 22.5 mph /  36.2 km/h 86 % 0.0 in /  0 mm
06:04 6.6 °F /  -14.1 °C 4.4 °F /  -15.3 °C 1015.1 in /  34371.3 hPa WSW 14.3 mph /  23 km/h 27.4 mph /  44.1 km/h 86 % 0.0 in /  0 mm
06:10 6.5 °F /  -14.2 °C 4.3 °F /  -15.4 °C 1015.1 in /  34371.3 hPa SW 13.0 mph /  20.9 km/h 19.3 mph /  31.1 km/h 86 % 0.0 in /  0 mm
06:16 6.5 °F /  -14.2 °C 4.3 °F /  -15.4 °C 1015.1 in /  34371.3 hPa SW 20.9 mph /  33.6 km/h 25.7 mph /  41.4 km/h 86 % 0.0 in /  0 mm
06:22 6.5 °F /  -14.2 °C 4.3 °F /  -15.4 °C 1015.1 in /  34371.3 hPa WSW 7.9 mph /  12.7 km/h 27.4 mph /  44.1 km/h 86 % 0.0 in /  0 mm
06:28 6.5 °F /  -14.2 °C 4.3 °F /  -15.4 °C 1015.1 in /  34371.3 hPa WSW 19.5 mph /  31.4 km/h 29.0 mph /  46.7 km/h 86 % 0.0 in /  0 mm
06:34 6.5 °F /  -14.2 °C 4.3 °F /  -15.4 °C 1015.1 in /  34371.3 hPa WSW 17.7 mph /  28.5 km/h 27.4 mph /  44.1 km/h 86 % 0.0 in /  0 mm
06:36 6.5 °F /  -14.2 °C 4.3 °F /  -15.4 °C 1015.1 in /  34371.3 hPa WSW 20.9 mph /  33.6 km/h 30.6 mph /  49.2 km/h 86 % 0.0 in /  0 mm
06:40 6.6 °F /  -14.1 °C 4.4 °F /  -15.3 °C 1015.1 in /  34371.3 hPa WSW 25.9 mph /  41.7 km/h 29.0 mph /  46.7 km/h 86 % 0.0 in /  0 mm
06:46 6.5 °F /  -14.2 °C 4.3 °F /  -15.4 °C 1015.1 in /  34371.3 hPa SW 11.1 mph /  17.9 km/h 19.3 mph /  31.1 km/h 86 % 0.0 in /  0 mm
06:52 6.5 °F /  -14.2 °C 4.5 °F /  -15.3 °C 1015.5 in /  34384.8 hPa WSW 7.9 mph /  12.7 km/h 19.3 mph /  31.1 km/h 87 % 0.0 in /  0 mm
06:58 6.5 °F /  -14.2 °C 4.5 °F /  -15.3 °C 1015.5 in /  34384.8 hPa WNW 20.9 mph /  33.6 km/h 24.1 mph /  38.8 km/h 87 % 0.0 in /  0 mm
07:04 6.4 °F /  -14.2 °C 4.4 °F /  -15.3 °C 1015.5 in /  34384.8 hPa WSW 13.0 mph /  20.9 km/h 17.7 mph /  28.5 km/h 87 % 0.0 in /  0 mm
07:10 6.3 °F /  -14.3 °C 4.3 °F /  -15.4 °C 1015.1 in /  34371.3 hPa SW 13.0 mph /  20.9 km/h 19.3 mph /  31.1 km/h 87 % 0.0 in /  0 mm
07:16 6.3 °F /  -14.3 °C 4.3 °F /  -15.4 °C 1015.1 in /  34371.3 hPa SW 11.1 mph /  17.9 km/h 22.5 mph /  36.2 km/h 87 % 0.0 in /  0 mm
07:22 6.2 °F /  -14.3 °C 4.4 °F /  -15.3 °C 1015.1 in /  34371.3 hPa SW 7.9 mph /  12.7 km/h 17.7 mph /  28.5 km/h 88 % 0.0 in /  0 mm
07:28 6.2 °F /  -14.3 °C 4.4 °F /  -15.3 °C 1015.1 in /  34371.3 hPa WSW 7.9 mph /  12.7 km/h 19.3 mph /  31.1 km/h 88 % 0.0 in /  0 mm
07:34 6.1 °F /  -14.4 °C 4.3 °F /  -15.4 °C 1015.1 in /  34371.3 hPa SSW 11.1 mph /  17.9 km/h 24.1 mph /  38.8 km/h 88 % 0.0 in /  0 mm
07:40 6.1 °F /  -14.4 °C 4.3 °F /  -15.4 °C 1015.1 in /  34371.3 hPa WSW 17.7 mph /  28.5 km/h 22.5 mph /  36.2 km/h 88 % 0.0 in /  0 mm
07:46 6.1 °F /  -14.4 °C 4.3 °F /  -15.4 °C 1014.8 in /  34361.1 hPa SW 19.5 mph /  31.4 km/h 22.5 mph /  36.2 km/h 88 % 0.0 in /  0 mm
07:52 6.1 °F /  -14.4 °C 4.4 °F /  -15.3 °C 1014.8 in /  34361.1 hPa SW 20.9 mph /  33.6 km/h 20.9 mph /  33.6 km/h 89 % 0.0 in /  0 mm
07:56 6.1 °F /  -14.4 °C 4.4 °F /  -15.3 °C 1014.8 in /  34361.1 hPa SW 16.3 mph /  26.2 km/h 22.5 mph /  36.2 km/h 89 % 0.0 in /  0 mm
08:02 6.0 °F /  -14.4 °C 4.3 °F /  -15.4 °C 1014.8 in /  34361.1 hPa SW 11.1 mph /  17.9 km/h 22.5 mph /  36.2 km/h 89 % 0.0 in /  0 mm
08:08 5.9 °F /  -14.5 °C 4.2 °F /  -15.4 °C 1014.8 in /  34361.1 hPa SW 6.4 mph /  10.3 km/h 20.9 mph /  33.6 km/h 89 % 0.0 in /  0 mm
08:14 5.9 °F /  -14.5 °C 4.2 °F /  -15.4 °C 1014.4 in /  34347.6 hPa SW 14.3 mph /  23 km/h 17.7 mph /  28.5 km/h 89 % 0.0 in /  0 mm
08:20 5.7 °F /  -14.6 °C 4.0 °F /  -15.6 °C 1014.4 in /  34347.6 hPa SSW 11.1 mph /  17.9 km/h 20.9 mph /  33.6 km/h 89 % 0.0 in /  0 mm
08:26 5.6 °F /  -14.7 °C 4.1 °F /  -15.5 °C 1014.4 in /  34347.6 hPa SW 11.1 mph /  17.9 km/h 16.1 mph /  25.9 km/h 90 % 0.0 in /  0 mm
08:34 5.4 °F /  -14.8 °C 4.0 °F /  -15.6 °C 1014.4 in /  34347.6 hPa South 11.1 mph /  17.9 km/h 16.1 mph /  25.9 km/h 91 % 0.0 in /  0 mm
08:40 5.6 °F /  -14.7 °C 4.2 °F /  -15.4 °C 1014.4 in /  34347.6 hPa SSW 14.3 mph /  23 km/h 16.1 mph /  25.9 km/h 91 % 0.0 in /  0 mm
08:46 5.6 °F /  -14.7 °C 4.2 °F /  -15.4 °C 1014.1 in /  34337.4 hPa SSW 13.0 mph /  20.9 km/h 20.9 mph /  33.6 km/h 91 % 0.0 in /  0 mm
08:52 5.7 °F /  -14.6 °C 4.3 °F /  -15.4 °C 1013.8 in /  34327.3 hPa SSW 20.9 mph /  33.6 km/h 20.9 mph /  33.6 km/h 91 % 0.0 in /  0 mm
08:58 5.8 °F /  -14.6 °C 4.4 °F /  -15.3 °C 1013.8 in /  34327.3 hPa SW 22.7 mph /  36.5 km/h 22.7 mph /  36.5 km/h 91 % 0.0 in /  0 mm
09:04 5.9 °F /  -14.5 °C 4.5 °F /  -15.3 °C 1013.4 in /  34313.7 hPa SSW 14.3 mph /  23 km/h 25.7 mph /  41.4 km/h 91 % 0.0 in /  0 mm
09:12 6.0 °F /  -14.4 °C 4.6 °F /  -15.2 °C 1013.4 in /  34313.7 hPa SSW 13.0 mph /  20.9 km/h 25.7 mph /  41.4 km/h 91 % 0.0 in /  0 mm
09:18 6.1 °F /  -14.4 °C 4.6 °F /  -15.2 °C 1013.1 in /  34303.6 hPa SW 19.5 mph /  31.4 km/h 25.7 mph /  41.4 km/h 90 % 0.0 in /  0 mm
09:24 6.2 °F /  -14.3 °C 4.7 °F /  -15.2 °C 1013.1 in /  34303.6 hPa SW 17.7 mph /  28.5 km/h 29.0 mph /  46.7 km/h 90 % 0.0 in /  0 mm
09:30 6.3 °F /  -14.3 °C 4.8 °F /  -15.1 °C 1012.8 in /  34293.4 hPa SSW 13.0 mph /  20.9 km/h 22.5 mph /  36.2 km/h 90 % 0.0 in /  0 mm
09:36 6.4 °F /  -14.2 °C 4.9 °F /  -15.1 °C 1012.8 in /  34293.4 hPa SW 16.3 mph /  26.2 km/h 19.3 mph /  31.1 km/h 90 % 0.0 in /  0 mm
09:42 6.5 °F /  -14.2 °C 5.0 °F /  -15 °C 1012.4 in /  34279.9 hPa SSW 14.3 mph /  23 km/h 20.9 mph /  33.6 km/h 90 % 0.0 in /  0 mm
09:48 6.7 °F /  -14.1 °C 5.0 °F /  -15 °C 1012.4 in /  34279.9 hPa SSW 13.0 mph /  20.9 km/h 22.5 mph /  36.2 km/h 89 % 0.0 in /  0 mm
09:54 6.8 °F /  -14 °C 5.1 °F /  -14.9 °C 1012.1 in /  34269.7 hPa SSW 19.5 mph /  31.4 km/h 30.6 mph /  49.2 km/h 89 % 0.0 in /  0 mm
10:00 6.9 °F /  -13.9 °C 5.1 °F /  -14.9 °C 1011.7 in /  34256.2 hPa SSW 16.3 mph /  26.2 km/h 30.6 mph /  49.2 km/h 88 % 0.0 in /  0 mm
10:06 7.1 °F /  -13.8 °C 5.2 °F /  -14.9 °C 1011.7 in /  34256.2 hPa SSW 19.5 mph /  31.4 km/h 29.0 mph /  46.7 km/h 88 % 0.0 in /  0 mm
10:12 7.2 °F /  -13.8 °C 5.3 °F /  -14.8 °C 1011.7 in /  34256.2 hPa South 20.9 mph /  33.6 km/h 30.6 mph /  49.2 km/h 88 % 0.0 in /  0 mm
10:18 7.2 °F /  -13.8 °C 5.3 °F /  -14.8 °C 1011.7 in /  34256.2 hPa SSW 28.8 mph /  46.3 km/h 29.0 mph /  46.7 km/h 88 % 0.0 in /  0 mm
10:22 7.2 °F /  -13.8 °C 5.3 °F /  -14.8 °C 1011.7 in /  34256.2 hPa SSW 22.7 mph /  36.5 km/h 32.2 mph /  51.8 km/h 88 % 0.3 in /  7.62 mm
10:28 7.1 °F /  -13.8 °C 5.4 °F /  -14.8 °C 1011.4 in /  34246 hPa South 13.0 mph /  20.9 km/h 27.4 mph /  44.1 km/h 89 % 0.5 in /  12.7 mm
10:31 7.0 °F /  -13.9 °C 5.3 °F /  -14.8 °C 1011.1 in /  34235.8 hPa SSW 20.9 mph /  33.6 km/h 24.1 mph /  38.8 km/h 89 % 0.5 in /  12.7 mm
10:36 6.9 °F /  -13.9 °C 5.4 °F /  -14.8 °C 1010.7 in /  34222.3 hPa SSW 25.9 mph /  41.7 km/h 29.0 mph /  46.7 km/h 90 % 0.5 in /  12.7 mm
10:42 6.8 °F /  -14 °C 5.3 °F /  -14.8 °C 1010.7 in /  34222.3 hPa South 20.9 mph /  33.6 km/h 37.0 mph /  59.5 km/h 90 % 0.5 in /  12.7 mm
10:48 6.8 °F /  -14 °C 5.4 °F /  -14.8 °C 1010.4 in /  34212.1 hPa South 24.1 mph /  38.8 km/h 32.2 mph /  51.8 km/h 91 % 0.5 in /  12.7 mm
10:55 6.8 °F /  -14 °C 5.4 °F /  -14.8 °C 1010.0 in /  34198.6 hPa South 17.7 mph /  28.5 km/h 29.0 mph /  46.7 km/h 91 % 0.8 in /  20.32 mm
11:00 6.8 °F /  -14 °C 5.4 °F /  -14.8 °C 1010.0 in /  34198.6 hPa SSW 17.7 mph /  28.5 km/h 32.2 mph /  51.8 km/h 91 % 0.8 in /  20.32 mm
11:07 6.7 °F /  -14.1 °C 5.5 °F /  -14.7 °C 1009.7 in /  34188.4 hPa SSW 25.9 mph /  41.7 km/h 33.8 mph /  54.4 km/h 92 % 0.8 in /  20.32 mm
11:13 6.7 °F /  -14.1 °C 5.5 °F /  -14.7 °C 1009.4 in /  34178.3 hPa SSW 22.7 mph /  36.5 km/h 30.6 mph /  49.2 km/h 92 % 1.0 in /  25.4 mm
11:19 6.7 °F /  -14.1 °C 5.5 °F /  -14.7 °C 1009.0 in /  34164.7 hPa SSW 25.9 mph /  41.7 km/h 40.2 mph /  64.7 km/h 92 % 1.0 in /  25.4 mm
11:25 6.8 °F /  -14 °C 5.7 °F /  -14.6 °C 1008.7 in /  34154.6 hPa SSW 28.8 mph /  46.3 km/h 33.8 mph /  54.4 km/h 93 % 0.8 in /  20.32 mm
11:29 6.8 °F /  -14 °C 5.6 °F /  -14.7 °C 1008.4 in /  34144.4 hPa SSW 19.5 mph /  31.4 km/h 33.8 mph /  54.4 km/h 92 % 0.8 in /  20.32 mm
11:35 6.8 °F /  -14 °C 5.7 °F /  -14.6 °C 1008.4 in /  34144.4 hPa SW 22.7 mph /  36.5 km/h 25.7 mph /  41.4 km/h 93 % 0.8 in /  20.32 mm
11:41 6.8 °F /  -14 °C 5.7 °F /  -14.6 °C 1008.0 in /  34130.9 hPa SSW 20.9 mph /  33.6 km/h 22.5 mph /  36.2 km/h 93 % 0.8 in /  20.32 mm
11:47 6.8 °F /  -14 °C 5.7 °F /  -14.6 °C 1008.0 in /  34130.9 hPa SSW 19.5 mph /  31.4 km/h 35.4 mph /  57 km/h 93 % 1.0 in /  25.4 mm
11:53 6.9 °F /  -13.9 °C 5.8 °F /  -14.6 °C 1008.0 in /  34130.9 hPa SSW 20.9 mph /  33.6 km/h 37.0 mph /  59.5 km/h 93 % 0.8 in /  20.32 mm
11:59 6.9 °F /  -13.9 °C 5.8 °F /  -14.6 °C 1007.7 in /  34120.7 hPa SSW 28.8 mph /  46.3 km/h 43.4 mph /  69.8 km/h 93 % 0.8 in /  20.32 mm
12:03 7.1 °F /  -13.8 °C 6.0 °F /  -14.4 °C 1007.3 in /  34107.2 hPa SSW 20.9 mph /  33.6 km/h 41.8 mph /  67.3 km/h 93 % 1.0 in /  25.4 mm
12:07 7.2 °F /  -13.8 °C 6.0 °F /  -14.4 °C 1007.3 in /  34107.2 hPa South 24.1 mph /  38.8 km/h 45.1 mph /  72.6 km/h 92 % 1.3 in /  33.02 mm
12:13 7.3 °F /  -13.7 °C 5.9 °F /  -14.5 °C 1007.3 in /  34107.2 hPa SW 33.8 mph /  54.4 km/h 33.8 mph /  54.4 km/h 91 % 1.3 in /  33.02 mm
12:15 7.3 °F /  -13.7 °C 5.9 °F /  -14.5 °C 1007.0 in /  34097 hPa SW 25.9 mph /  41.7 km/h 43.4 mph /  69.8 km/h 91 % 1.5 in /  38.1 mm
12:21 7.4 °F /  -13.7 °C 6.0 °F /  -14.4 °C 1006.7 in /  34086.9 hPa SW 28.8 mph /  46.3 km/h 43.4 mph /  69.8 km/h 91 % 1.5 in /  38.1 mm
12:27 7.4 °F /  -13.7 °C 6.0 °F /  -14.4 °C 1006.7 in /  34086.9 hPa SSW 19.5 mph /  31.4 km/h 38.6 mph /  62.1 km/h 91 % 1.5 in /  38.1 mm
12:33 7.3 °F /  -13.7 °C 6.1 °F /  -14.4 °C 1006.3 in /  34073.3 hPa SW 17.7 mph /  28.5 km/h 38.6 mph /  62.1 km/h 92 % 1.8 in /  45.72 mm
12:39 7.4 °F /  -13.7 °C 6.2 °F /  -14.3 °C 1006.3 in /  34073.3 hPa SSW 19.5 mph /  31.4 km/h 40.2 mph /  64.7 km/h 92 % 2.3 in /  58.42 mm
12:45 7.3 °F /  -13.7 °C 6.1 °F /  -14.4 °C 1006.0 in /  34063.2 hPa SSW 25.9 mph /  41.7 km/h 37.0 mph /  59.5 km/h 92 % 2.5 in /  63.5 mm
12:51 7.2 °F /  -13.8 °C 6.1 °F /  -14.4 °C 1005.6 in /  34049.6 hPa SW 24.1 mph /  38.8 km/h 30.6 mph /  49.2 km/h 93 % 3.3 in /  83.82 mm
12:57 7.2 °F /  -13.8 °C 6.1 °F /  -14.4 °C 1005.6 in /  34049.6 hPa SSW 20.9 mph /  33.6 km/h 32.2 mph /  51.8 km/h 93 % 3.8 in /  96.52 mm
13:03 7.2 °F /  -13.8 °C 6.3 °F /  -14.3 °C 1005.3 in /  34039.5 hPa WSW 14.3 mph /  23 km/h 22.5 mph /  36.2 km/h 94 % 4.3 in /  109.22 mm
13:09 7.1 °F /  -13.8 °C 6.2 °F /  -14.3 °C 1005.0 in /  34029.3 hPa SSW 1.4 mph /  2.3 km/h 12.9 mph /  20.8 km/h 94 % 4.8 in /  121.92 mm
13:13 7.1 °F /  -13.8 °C 6.2 °F /  -14.3 °C 1004.6 in /  34015.8 hPa SSW 4.7 mph /  7.6 km/h 6.4 mph /  10.3 km/h 94 % 5.6 in /  142.24 mm
13:19 7.0 °F /  -13.9 °C 6.1 °F /  -14.4 °C 1004.6 in /  34015.8 hPa SSE 3.2 mph /  5.1 km/h 6.4 mph /  10.3 km/h 94 % 6.3 in /  160.02 mm
13:25 6.9 °F /  -13.9 °C 6.2 °F /  -14.3 °C 1003.9 in /  33992.1 hPa East 1.4 mph /  2.3 km/h 1.6 mph /  2.6 km/h 95 % 7.1 in /  180.34 mm
13:31 6.9 °F /  -13.9 °C 6.2 °F /  -14.3 °C 1003.6 in /  33981.9 hPa Calm   4.8 mph /  7.7 km/h 95 % 8.1 in /  205.74 mm
13:37 6.9 °F /  -13.9 °C 6.2 °F /  -14.3 °C 1003.3 in /  33971.7 hPa SW 3.2 mph /  5.1 km/h 8.0 mph /  12.9 km/h 95 % 9.4 in /  238.76 mm
13:43 7.2 °F /  -13.8 °C 6.5 °F /  -14.2 °C 1002.6 in /  33948 hPa WSW 40.4 mph /  65 km/h 49.9 mph /  80.3 km/h 95 % 9.9 in /  251.46 mm
13:49 7.2 °F /  -13.8 °C 6.5 °F /  -14.2 °C 1004.3 in /  34005.6 hPa NNW 24.1 mph /  38.8 km/h 70.8 mph /  113.9 km/h 95 % 10.2 in /  259.08 mm
13:55 6.7 °F /  -14.1 °C 5.6 °F /  -14.7 °C 1004.6 in /  34015.8 hPa West 13.0 mph /  20.9 km/h 32.2 mph /  51.8 km/h 93 % 10.7 in /  271.78 mm
14:01 6.6 °F /  -14.1 °C 5.4 °F /  -14.8 °C 1003.9 in /  33992.1 hPa WSW 14.3 mph /  23 km/h 19.3 mph /  31.1 km/h 92 % 10.4 in /  264.16 mm
14:07 6.5 °F /  -14.2 °C 5.3 °F /  -14.8 °C 1003.9 in /  33992.1 hPa SSW 7.9 mph /  12.7 km/h 22.5 mph /  36.2 km/h 92 % 9.9 in /  251.46 mm
14:13 6.2 °F /  -14.3 °C 5.0 °F /  -15 °C 1003.9 in /  33992.1 hPa SW 13.0 mph /  20.9 km/h 29.0 mph /  46.7 km/h 92 % 8.9 in /  226.06 mm
14:19 5.5 °F /  -14.7 °C 4.3 °F /  -15.4 °C 1003.9 in /  33992.1 hPa WSW 17.7 mph /  28.5 km/h 37.0 mph /  59.5 km/h 92 % 7.9 in /  200.66 mm
14:25 5.1 °F /  -14.9 °C 4.1 °F /  -15.5 °C 1003.6 in /  33981.9 hPa SW 22.7 mph /  36.5 km/h 35.4 mph /  57 km/h 93 % 6.9 in /  175.26 mm
14:31 5.1 °F /  -14.9 °C 4.2 °F /  -15.4 °C 1003.3 in /  33971.7 hPa SW 37.0 mph /  59.5 km/h 40.2 mph /  64.7 km/h 94 % 6.1 in /  154.94 mm
14:33 5.2 °F /  -14.9 °C 4.5 °F /  -15.3 °C 1002.9 in /  33958.2 hPa SW 28.8 mph /  46.3 km/h 37.0 mph /  59.5 km/h 95 % 5.6 in /  142.24 mm
14:39 5.6 °F /  -14.7 °C 4.9 °F /  -15.1 °C 1002.9 in /  33958.2 hPa WSW 33.8 mph /  54.4 km/h 41.8 mph /  67.3 km/h 95 % 4.1 in /  104.14 mm
14:45 5.8 °F /  -14.6 °C 4.8 °F /  -15.1 °C 1002.9 in /  33958.2 hPa WSW 25.9 mph /  41.7 km/h 40.2 mph /  64.7 km/h 93 % 3.3 in /  83.82 mm
14:51 6.1 °F /  -14.4 °C 5.1 °F /  -14.9 °C 1003.3 in /  33971.7 hPa SW 22.7 mph /  36.5 km/h 49.9 mph /  80.3 km/h 93 % 2.3 in /  58.42 mm
14:57 6.4 °F /  -14.2 °C 5.0 °F /  -15 °C 1003.3 in /  33971.7 hPa SW 45.1 mph /  72.6 km/h 45.1 mph /  72.6 km/h 91 % 1.8 in /  45.72 mm
15:03 6.5 °F /  -14.2 °C 5.1 °F /  -14.9 °C 1003.3 in /  33971.7 hPa SW 30.6 mph /  49.2 km/h 49.9 mph /  80.3 km/h 91 % 2.3 in /  58.42 mm
15:09 6.4 °F /  -14.2 °C 5.0 °F /  -15 °C 1002.9 in /  33958.2 hPa WSW 48.3 mph /  77.7 km/h 49.9 mph /  80.3 km/h 91 % 2.3 in /  58.42 mm
15:15 6.6 °F /  -14.1 °C 4.9 °F /  -15.1 °C 1002.9 in /  33958.2 hPa SW 45.1 mph /  72.6 km/h 46.7 mph /  75.2 km/h 89 % 2.3 in /  58.42 mm
15:21 6.6 °F /  -14.1 °C 4.9 °F /  -15.1 °C 1002.9 in /  33958.2 hPa SSW 33.8 mph /  54.4 km/h 49.9 mph /  80.3 km/h 89 % 2.3 in /  58.42 mm
15:27 6.5 °F /  -14.2 °C 4.8 °F /  -15.1 °C 1002.9 in /  33958.2 hPa SW 38.5 mph /  62 km/h 41.8 mph /  67.3 km/h 89 % 1.8 in /  45.72 mm
15:33 6.4 °F /  -14.2 °C 5.0 °F /  -15 °C 1002.9 in /  33958.2 hPa SW 17.7 mph /  28.5 km/h 40.2 mph /  64.7 km/h 91 % 1.5 in /  38.1 mm
15:39 6.3 °F /  -14.3 °C 4.9 °F /  -15.1 °C 1003.3 in /  33971.7 hPa SW 28.8 mph /  46.3 km/h 29.0 mph /  46.7 km/h 91 % 1.5 in /  38.1 mm
15:45 6.4 °F /  -14.2 °C 5.0 °F /  -15 °C 1003.3 in /  33971.7 hPa WSW 28.8 mph /  46.3 km/h 30.6 mph /  49.2 km/h 91 % 1.5 in /  38.1 mm
15:51 6.4 °F /  -14.2 °C 5.0 °F /  -15 °C 1003.6 in /  33981.9 hPa WSW 14.3 mph /  23 km/h 32.2 mph /  51.8 km/h 91 % 1.5 in /  38.1 mm
15:57 6.4 °F /  -14.2 °C 5.0 °F /  -15 °C 1003.3 in /  33971.7 hPa SW 22.7 mph /  36.5 km/h 33.8 mph /  54.4 km/h 91 % 1.3 in /  33.02 mm
16:03 6.4 °F /  -14.2 °C 4.9 °F /  -15.1 °C 1003.3 in /  33971.7 hPa WSW 24.1 mph /  38.8 km/h 38.6 mph /  62.1 km/h 90 % 0.5 in /  12.7 mm
16:09 6.4 °F /  -14.2 °C 4.9 °F /  -15.1 °C 1003.6 in /  33981.9 hPa SW 20.9 mph /  33.6 km/h 30.6 mph /  49.2 km/h 90 % 0.3 in /  7.62 mm
16:15 6.3 °F /  -14.3 °C 4.8 °F /  -15.1 °C 1003.9 in /  33992.1 hPa SW 24.1 mph /  38.8 km/h 32.2 mph /  51.8 km/h 90 % 0.0 in /  0 mm
16:23 6.4 °F /  -14.2 °C 4.9 °F /  -15.1 °C 1003.9 in /  33992.1 hPa WSW 16.3 mph /  26.2 km/h 33.8 mph /  54.4 km/h 90 % 0.0 in /  0 mm
16:27 6.4 °F /  -14.2 °C 4.9 °F /  -15.1 °C 1003.9 in /  33992.1 hPa SW 17.7 mph /  28.5 km/h 41.8 mph /  67.3 km/h 90 % 0.0 in /  0 mm
16:33 6.5 °F /  -14.2 °C 5.1 °F /  -14.9 °C 1003.9 in /  33992.1 hPa WSW 20.9 mph /  33.6 km/h 38.6 mph /  62.1 km/h 91 % 0.3 in /  7.62 mm
16:39 6.6 °F /  -14.1 °C 5.4 °F /  -14.8 °C 1003.9 in /  33992.1 hPa WSW 32.0 mph /  51.5 km/h 38.6 mph /  62.1 km/h 92 % 0.3 in /  7.62 mm
16:45 6.6 °F /  -14.1 °C 5.5 °F /  -14.7 °C 1004.3 in /  34005.6 hPa WSW 16.3 mph /  26.2 km/h 30.6 mph /  49.2 km/h 93 % 0.5 in /  12.7 mm
16:53 6.7 °F /  -14.1 °C 5.6 °F /  -14.7 °C 1004.6 in /  34015.8 hPa WSW 14.3 mph /  23 km/h 27.4 mph /  44.1 km/h 93 % 0.5 in /  12.7 mm
16:59 6.9 °F /  -13.9 °C 5.8 °F /  -14.6 °C 1004.6 in /  34015.8 hPa WSW 25.9 mph /  41.7 km/h 30.6 mph /  49.2 km/h 93 % 0.5 in /  12.7 mm
17:05 6.9 °F /  -13.9 °C 5.8 °F /  -14.6 °C 1005.0 in /  34029.3 hPa West 17.7 mph /  28.5 km/h 29.0 mph /  46.7 km/h 93 % 0.5 in /  12.7 mm
17:11 7.0 °F /  -13.9 °C 5.9 °F /  -14.5 °C 1005.0 in /  34029.3 hPa West 13.0 mph /  20.9 km/h 43.4 mph /  69.8 km/h 93 % 0.5 in /  12.7 mm
17:17 7.1 °F /  -13.8 °C 5.9 °F /  -14.5 °C 1005.6 in /  34049.6 hPa West 22.7 mph /  36.5 km/h 49.9 mph /  80.3 km/h 92 % 0.5 in /  12.7 mm
17:23 7.1 °F /  -13.8 °C 6.0 °F /  -14.4 °C 1005.6 in /  34049.6 hPa WSW 17.7 mph /  28.5 km/h 32.2 mph /  51.8 km/h 93 % 0.8 in /  20.32 mm
17:29 7.0 °F /  -13.9 °C 5.9 °F /  -14.5 °C 1005.6 in /  34049.6 hPa WSW 25.9 mph /  41.7 km/h 46.7 mph /  75.2 km/h 93 % 0.8 in /  20.32 mm
17:35 7.1 °F /  -13.8 °C 5.7 °F /  -14.6 °C 1006.0 in /  34063.2 hPa WSW 32.0 mph /  51.5 km/h 38.6 mph /  62.1 km/h 91 % 0.8 in /  20.32 mm
17:41 7.3 °F /  -13.7 °C 5.8 °F /  -14.6 °C 1006.3 in /  34073.3 hPa WSW 27.4 mph /  44.1 km/h 32.2 mph /  51.8 km/h 90 % 0.8 in /  20.32 mm
17:47 7.6 °F /  -13.6 °C 5.6 °F /  -14.7 °C 1006.3 in /  34073.3 hPa WSW 35.2 mph /  56.6 km/h 35.4 mph /  57 km/h 87 % 0.5 in /  12.7 mm
17:53 7.6 °F /  -13.6 °C 5.6 °F /  -14.7 °C 1006.7 in /  34086.9 hPa West 24.1 mph /  38.8 km/h 29.0 mph /  46.7 km/h 87 % 0.5 in /  12.7 mm
17:59 7.5 °F /  -13.6 °C 5.6 °F /  -14.7 °C 1007.0 in /  34097 hPa West 20.9 mph /  33.6 km/h 30.6 mph /  49.2 km/h 88 % 0.5 in /  12.7 mm
18:05 7.4 °F /  -13.7 °C 5.5 °F /  -14.7 °C 1007.0 in /  34097 hPa West 14.3 mph /  23 km/h 32.2 mph /  51.8 km/h 88 % 0.5 in /  12.7 mm
18:11 7.4 °F /  -13.7 °C 5.4 °F /  -14.8 °C 1007.3 in /  34107.2 hPa NW 16.3 mph /  26.2 km/h 27.4 mph /  44.1 km/h 87 % 0.5 in /  12.7 mm
18:17 7.4 °F /  -13.7 °C 5.4 °F /  -14.8 °C 1007.7 in /  34120.7 hPa West 20.9 mph /  33.6 km/h 30.6 mph /  49.2 km/h 87 % 0.5 in /  12.7 mm
18:23 7.5 °F /  -13.6 °C 5.3 °F /  -14.8 °C 1008.0 in /  34130.9 hPa West 20.9 mph /  33.6 km/h 33.8 mph /  54.4 km/h 86 % 0.3 in /  7.62 mm
18:29 7.4 °F /  -13.7 °C 5.4 °F /  -14.8 °C 1008.4 in /  34144.4 hPa West 13.0 mph /  20.9 km/h 29.0 mph /  46.7 km/h 87 % 0.3 in /  7.62 mm
18:35 7.2 °F /  -13.8 °C 5.5 °F /  -14.7 °C 1008.7 in /  34154.6 hPa WNW 9.7 mph /  15.6 km/h 19.3 mph /  31.1 km/h 89 % 0.0 in /  0 mm
18:41 7.2 °F /  -13.8 °C 5.5 °F /  -14.7 °C 1009.0 in /  34164.7 hPa West 11.1 mph /  17.9 km/h 29.0 mph /  46.7 km/h 89 % 0.0 in /  0 mm
18:47 7.3 °F /  -13.7 °C 5.3 °F /  -14.8 °C 1009.0 in /  34164.7 hPa WNW 14.3 mph /  23 km/h 19.3 mph /  31.1 km/h 87 % 0.0 in /  0 mm
18:53 7.3 °F /  -13.7 °C 5.3 °F /  -14.8 °C 1009.4 in /  34178.3 hPa WNW 13.0 mph /  20.9 km/h 25.7 mph /  41.4 km/h 87 % 0.0 in /  0 mm
18:59 7.2 °F /  -13.8 °C 5.3 °F /  -14.8 °C 1009.7 in /  34188.4 hPa West 16.3 mph /  26.2 km/h 19.3 mph /  31.1 km/h 88 % 0.0 in /  0 mm
19:05 7.2 °F /  -13.8 °C 5.2 °F /  -14.9 °C 1009.7 in /  34188.4 hPa WNW 25.9 mph /  41.7 km/h 30.6 mph /  49.2 km/h 87 % 0.0 in /  0 mm
19:06 7.2 °F /  -13.8 °C 5.3 °F /  -14.8 °C 1009.7 in /  34188.4 hPa West 6.4 mph /  10.3 km/h 19.3 mph /  31.1 km/h 88 % 0.0 in /  0 mm
19:13 7.3 °F /  -13.7 °C 4.9 °F /  -15.1 °C 1009.7 in /  34188.4 hPa West 4.7 mph /  7.6 km/h 22.5 mph /  36.2 km/h 85 % 0.0 in /  0 mm
19:19 7.3 °F /  -13.7 °C 4.8 °F /  -15.1 °C 1010.0 in /  34198.6 hPa West 19.5 mph /  31.4 km/h 29.0 mph /  46.7 km/h 84 % 0.0 in /  0 mm
19:25 7.3 °F /  -13.7 °C 4.8 °F /  -15.1 °C 1010.4 in /  34212.1 hPa West 13.0 mph /  20.9 km/h 25.7 mph /  41.4 km/h 84 % 0.0 in /  0 mm
19:31 7.3 °F /  -13.7 °C 4.8 °F /  -15.1 °C 1010.4 in /  34212.1 hPa West 24.1 mph /  38.8 km/h 29.0 mph /  46.7 km/h 84 % 0.0 in /  0 mm
19:37 7.4 °F /  -13.7 °C 4.7 °F /  -15.2 °C 1010.7 in /  34222.3 hPa West 16.3 mph /  26.2 km/h 29.0 mph /  46.7 km/h 83 % 0.0 in /  0 mm
19:43 7.6 °F /  -13.6 °C 4.5 °F /  -15.3 °C 1010.7 in /  34222.3 hPa WNW 38.6 mph /  62.1 km/h 38.6 mph /  62.1 km/h 81 % 0.3 in /  7.62 mm
19:49 7.7 °F /  -13.5 °C 4.5 °F /  -15.3 °C 1011.1 in /  34235.8 hPa WSW 17.7 mph /  28.5 km/h 29.0 mph /  46.7 km/h 80 % 0.3 in /  7.62 mm
19:53 7.7 °F /  -13.5 °C 4.5 °F /  -15.3 °C 1011.1 in /  34235.8 hPa NW 19.5 mph /  31.4 km/h 32.2 mph /  51.8 km/h 80 % 0.3 in /  7.62 mm
19:59 7.6 °F /  -13.6 °C 4.4 °F /  -15.3 °C 1011.1 in /  34235.8 hPa West 11.1 mph /  17.9 km/h 22.5 mph /  36.2 km/h 80 % 0.3 in /  7.62 mm
20:05 7.5 °F /  -13.6 °C 4.3 °F /  -15.4 °C 1011.4 in /  34246 hPa West 17.7 mph /  28.5 km/h 33.8 mph /  54.4 km/h 80 % 0.3 in /  7.62 mm
20:11 7.3 °F /  -13.7 °C 4.3 °F /  -15.4 °C 1011.7 in /  34256.2 hPa West 13.0 mph /  20.9 km/h 22.5 mph /  36.2 km/h 81 % 0.3 in /  7.62 mm
20:19 7.2 °F /  -13.8 °C 4.5 °F /  -15.3 °C 1011.7 in /  34256.2 hPa WSW 14.3 mph /  23 km/h 32.2 mph /  51.8 km/h 83 % 0.3 in /  7.62 mm
20:25 7.1 °F /  -13.8 °C 4.6 °F /  -15.2 °C 1012.1 in /  34269.7 hPa West 14.3 mph /  23 km/h 20.9 mph /  33.6 km/h 84 % 0.3 in /  7.62 mm
20:31 7.1 °F /  -13.8 °C 4.6 °F /  -15.2 °C 1012.1 in /  34269.7 hPa West 13.0 mph /  20.9 km/h 22.5 mph /  36.2 km/h 84 % 0.3 in /  7.62 mm
20:37 7.1 °F /  -13.8 °C 4.6 °F /  -15.2 °C 1012.4 in /  34279.9 hPa WSW 22.7 mph /  36.5 km/h 29.0 mph /  46.7 km/h 84 % 0.3 in /  7.62 mm
20:43 7.1 °F /  -13.8 °C 4.6 °F /  -15.2 °C 1012.8 in /  34293.4 hPa WSW 16.3 mph /  26.2 km/h 25.7 mph /  41.4 km/h 84 % 0.0 in /  0 mm
20:45 7.1 °F /  -13.8 °C 4.6 °F /  -15.2 °C 1012.8 in /  34293.4 hPa WSW 14.3 mph /  23 km/h 22.5 mph /  36.2 km/h 84 % 0.0 in /  0 mm
20:51 7.1 °F /  -13.8 °C 4.6 °F /  -15.2 °C 1012.8 in /  34293.4 hPa SW 17.7 mph /  28.5 km/h 20.9 mph /  33.6 km/h 84 % 0.0 in /  0 mm
20:57 7.0 °F /  -13.9 °C 4.5 °F /  -15.3 °C 1012.8 in /  34293.4 hPa WSW 17.7 mph /  28.5 km/h 22.5 mph /  36.2 km/h 84 % 0.0 in /  0 mm
20:59 7.0 °F /  -13.9 °C 4.5 °F /  -15.3 °C 1012.8 in /  34293.4 hPa WNW 19.5 mph /  31.4 km/h 24.1 mph /  38.8 km/h 84 % 0.0 in /  0 mm
21:05 6.9 °F /  -13.9 °C 4.6 °F /  -15.2 °C 1013.1 in /  34303.6 hPa West 17.7 mph /  28.5 km/h 24.1 mph /  38.8 km/h 85 % 0.0 in /  0 mm
21:12 6.9 °F /  -13.9 °C 4.6 °F /  -15.2 °C 1013.4 in /  34313.7 hPa WSW 19.5 mph /  31.4 km/h 24.1 mph /  38.8 km/h 85 % 0.0 in /  0 mm
21:18 6.8 °F /  -14 °C 4.5 °F /  -15.3 °C 1013.4 in /  34313.7 hPa WSW 20.9 mph /  33.6 km/h 25.7 mph /  41.4 km/h 85 % 0.0 in /  0 mm
21:22 6.8 °F /  -14 °C 4.5 °F /  -15.3 °C 1013.4 in /  34313.7 hPa West 20.9 mph /  33.6 km/h 24.1 mph /  38.8 km/h 85 % 0.0 in /  0 mm
21:28 6.8 °F /  -14 °C 4.6 °F /  -15.2 °C 1013.4 in /  34313.7 hPa West 16.3 mph /  26.2 km/h 25.7 mph /  41.4 km/h 86 % 0.0 in /  0 mm
21:34 6.7 °F /  -14.1 °C 4.5 °F /  -15.3 °C 1013.8 in /  34327.3 hPa West 19.5 mph /  31.4 km/h 27.4 mph /  44.1 km/h 86 % 0.0 in /  0 mm
21:42 6.8 °F /  -14 °C 4.6 °F /  -15.2 °C 1013.8 in /  34327.3 hPa West 19.5 mph /  31.4 km/h 24.1 mph /  38.8 km/h 86 % 0.0 in /  0 mm
21:44 6.8 °F /  -14 °C 4.6 °F /  -15.2 °C 1014.1 in /  34337.4 hPa West 19.5 mph /  31.4 km/h 25.7 mph /  41.4 km/h 86 % 0.0 in /  0 mm
21:50 6.8 °F /  -14 °C 4.6 °F /  -15.2 °C 1014.1 in /  34337.4 hPa WSW 14.3 mph /  23 km/h 22.5 mph /  36.2 km/h 86 % 0.0 in /  0 mm
21:56 6.9 °F /  -13.9 °C 4.7 °F /  -15.2 °C 1014.1 in /  34337.4 hPa West 16.3 mph /  26.2 km/h 32.2 mph /  51.8 km/h 86 % 0.0 in /  0 mm
22:02 6.8 °F /  -14 °C 4.6 °F /  -15.2 °C 1014.4 in /  34347.6 hPa West 16.3 mph /  26.2 km/h 27.4 mph /  44.1 km/h 86 % 0.0 in /  0 mm
22:08 6.8 °F /  -14 °C 4.6 °F /  -15.2 °C 1014.4 in /  34347.6 hPa West 19.5 mph /  31.4 km/h 22.5 mph /  36.2 km/h 86 % 0.0 in /  0 mm
22:14 6.8 °F /  -14 °C 4.6 °F /  -15.2 °C 1014.8 in /  34361.1 hPa West 14.3 mph /  23 km/h 20.9 mph /  33.6 km/h 86 % 0.0 in /  0 mm
22:20 6.8 °F /  -14 °C 4.6 °F /  -15.2 °C 1014.8 in /  34361.1 hPa West 13.0 mph /  20.9 km/h 22.5 mph /  36.2 km/h 86 % 0.0 in /  0 mm
22:24 6.8 °F /  -14 °C 4.6 °F /  -15.2 °C 1014.8 in /  34361.1 hPa West 14.3 mph /  23 km/h 29.0 mph /  46.7 km/h 86 % 0.0 in /  0 mm
22:30 6.7 °F /  -14.1 °C 4.5 °F /  -15.3 °C 1015.1 in /  34371.3 hPa West 17.7 mph /  28.5 km/h 22.5 mph /  36.2 km/h 86 % 0.0 in /  0 mm
22:36 6.7 °F /  -14.1 °C 4.5 °F /  -15.3 °C 1015.1 in /  34371.3 hPa West 6.4 mph /  10.3 km/h 22.5 mph /  36.2 km/h 86 % 0.0 in /  0 mm
22:42 6.7 °F /  -14.1 °C 4.5 °F /  -15.3 °C 1015.5 in /  34384.8 hPa SW 9.7 mph /  15.6 km/h 22.5 mph /  36.2 km/h 86 % 0.0 in /  0 mm
22:48 6.6 °F /  -14.1 °C 4.4 °F /  -15.3 °C 1015.5 in /  34384.8 hPa West 14.3 mph /  23 km/h 24.1 mph /  38.8 km/h 86 % 0.0 in /  0 mm
22:54 6.7 °F /  -14.1 °C 4.5 °F /  -15.3 °C 1015.5 in /  34384.8 hPa WSW 6.4 mph /  10.3 km/h 19.3 mph /  31.1 km/h 86 % 0.0 in /  0 mm
22:56 6.6 °F /  -14.1 °C 4.4 °F /  -15.3 °C 1015.5 in /  34384.8 hPa WNW 7.9 mph /  12.7 km/h 22.5 mph /  36.2 km/h 86 % 0.0 in /  0 mm
23:02 6.6 °F /  -14.1 °C 4.4 °F /  -15.3 °C 1015.8 in /  34395 hPa West 14.3 mph /  23 km/h 22.5 mph /  36.2 km/h 86 % 0.0 in /  0 mm
23:08 6.7 °F /  -14.1 °C 4.4 °F /  -15.3 °C 1015.8 in /  34395 hPa West 13.0 mph /  20.9 km/h 24.1 mph /  38.8 km/h 85 % 0.0 in /  0 mm
23:14 6.7 °F /  -14.1 °C 4.4 °F /  -15.3 °C 1015.8 in /  34395 hPa West 17.7 mph /  28.5 km/h 22.5 mph /  36.2 km/h 85 % 0.0 in /  0 mm
23:18 6.8 °F /  -14 °C 4.3 °F /  -15.4 °C 1015.8 in /  34395 hPa WSW 17.7 mph /  28.5 km/h 24.1 mph /  38.8 km/h 84 % 0.0 in /  0 mm
23:24 6.8 °F /  -14 °C 4.3 °F /  -15.4 °C 1015.8 in /  34395 hPa WSW 11.1 mph /  17.9 km/h 16.1 mph /  25.9 km/h 84 % 0.0 in /  0 mm
23:28 6.7 °F /  -14.1 °C 4.2 °F /  -15.4 °C 1016.1 in /  34405.1 hPa West 14.3 mph /  23 km/h 17.7 mph /  28.5 km/h 84 % 0.0 in /  0 mm
23:34 6.6 °F /  -14.1 °C 4.3 °F /  -15.4 °C 1016.1 in /  34405.1 hPa WSW 13.0 mph /  20.9 km/h 16.1 mph /  25.9 km/h 85 % 0.0 in /  0 mm
23:40 6.5 °F /  -14.2 °C 4.3 °F /  -15.4 °C 1016.1 in /  34405.1 hPa WSW 13.0 mph /  20.9 km/h 22.5 mph /  36.2 km/h 86 % 0.0 in /  0 mm
23:46 6.6 °F /  -14.1 °C 4.3 °F /  -15.4 °C 1016.5 in /  34418.7 hPa WSW 19.5 mph /  31.4 km/h 27.4 mph /  44.1 km/h 85 % 0.0 in /  0 mm
23:52 6.7 °F /  -14.1 °C 4.4 °F /  -15.3 °C 1016.5 in /  34418.7 hPa WNW 13.0 mph /  20.9 km/h 19.3 mph /  31.1 km/h 85 % 0.0 in /  0 mm
23:54 6.6 °F /  -14.1 °C 4.3 °F /  -15.4 °C 1016.5 in /  34418.7 hPa WNW 7.9 mph /  12.7 km/h 16.1 mph /  25.9 km/h 85 % 0.0 in /  0 mm
Meteo18
Compliments of Weather Underground - 4 mb

Script developed by  Jim McMurry - jmcmurry@mwt.net Adapted for the template by  Wim van der Kuil - Leuven-Template.eu

You find our weather info also at:

European Weather Network

Weather Underground

Equipment we use:

Weather-station
Davis Vue

Weather-program
Meteobridge

Weather-server
Raspberry PI 2 B+

Provider
1 and 1

Davis Vue

Meteobridge

Raspberry PI 2 B+

1 and 1